sensor_id;sensor_type;location;lat;lon;timestamp;P1;durP1;ratioP1;P2;durP2;ratioP2
10481;SDS011;5288;42.334;23.876;2022-08-19T00:01:32;7.37;;;5.97;;
10481;SDS011;5288;42.334;23.876;2022-08-19T00:04:02;6.17;;;5.63;;
10481;SDS011;5288;42.334;23.876;2022-08-19T00:06:31;6.87;;;6.13;;
10481;SDS011;5288;42.334;23.876;2022-08-19T00:09:00;7.50;;;6.23;;
10481;SDS011;5288;42.334;23.876;2022-08-19T00:11:28;7.77;;;5.67;;
10481;SDS011;5288;42.334;23.876;2022-08-19T00:13:56;7.17;;;6.47;;
10481;SDS011;5288;42.334;23.876;2022-08-19T00:16:25;7.77;;;6.43;;
10481;SDS011;5288;42.334;23.876;2022-08-19T00:18:52;6.77;;;6.17;;
10481;SDS011;5288;42.334;23.876;2022-08-19T00:21:20;6.87;;;6.17;;
10481;SDS011;5288;42.334;23.876;2022-08-19T00:23:48;8.33;;;6.10;;
10481;SDS011;5288;42.334;23.876;2022-08-19T00:26:15;7.53;;;6.30;;
10481;SDS011;5288;42.334;23.876;2022-08-19T00:28:42;14.47;;;6.83;;
10481;SDS011;5288;42.334;23.876;2022-08-19T00:31:09;8.27;;;6.13;;
10481;SDS011;5288;42.334;23.876;2022-08-19T00:33:38;6.90;;;6.10;;
10481;SDS011;5288;42.334;23.876;2022-08-19T00:36:06;8.83;;;6.23;;
10481;SDS011;5288;42.334;23.876;2022-08-19T00:38:35;7.30;;;6.60;;
10481;SDS011;5288;42.334;23.876;2022-08-19T00:41:08;7.30;;;6.60;;
10481;SDS011;5288;42.334;23.876;2022-08-19T00:43:35;7.47;;;6.67;;
10481;SDS011;5288;42.334;23.876;2022-08-19T00:46:04;7.80;;;6.23;;
10481;SDS011;5288;42.334;23.876;2022-08-19T00:48:31;7.20;;;6.07;;
10481;SDS011;5288;42.334;23.876;2022-08-19T00:51:00;7.07;;;6.37;;
10481;SDS011;5288;42.334;23.876;2022-08-19T00:53:29;7.07;;;6.37;;
10481;SDS011;5288;42.334;23.876;2022-08-19T00:55:59;11.83;;;6.80;;
10481;SDS011;5288;42.334;23.876;2022-08-19T00:58:32;9.67;;;6.70;;
10481;SDS011;5288;42.334;23.876;2022-08-19T01:01:01;9.00;;;6.43;;
10481;SDS011;5288;42.334;23.876;2022-08-19T01:03:29;7.10;;;6.40;;
10481;SDS011;5288;42.334;23.876;2022-08-19T01:05:56;6.87;;;6.23;;
10481;SDS011;5288;42.334;23.876;2022-08-19T01:08:26;6.43;;;5.90;;
10481;SDS011;5288;42.334;23.876;2022-08-19T01:10:55;8.83;;;6.37;;
10481;SDS011;5288;42.334;23.876;2022-08-19T01:13:25;7.10;;;6.40;;
10481;SDS011;5288;42.334;23.876;2022-08-19T01:15:56;7.37;;;6.67;;
10481;SDS011;5288;42.334;23.876;2022-08-19T01:18:25;7.47;;;6.63;;
10481;SDS011;5288;42.334;23.876;2022-08-19T01:20:54;7.50;;;6.80;;
10481;SDS011;5288;42.334;23.876;2022-08-19T01:23:27;10.93;;;7.37;;
10481;SDS011;5288;42.334;23.876;2022-08-19T01:26:08;8.83;;;7.17;;
10481;SDS011;5288;42.334;23.876;2022-08-19T01:28:37;8.00;;;7.20;;
10481;SDS011;5288;42.334;23.876;2022-08-19T01:31:05;9.60;;;7.20;;
10481;SDS011;5288;42.334;23.876;2022-08-19T01:33:36;7.93;;;7.23;;
10481;SDS011;5288;42.334;23.876;2022-08-19T01:36:07;7.97;;;6.83;;
10481;SDS011;5288;42.334;23.876;2022-08-19T01:38:39;9.93;;;7.53;;
10481;SDS011;5288;42.334;23.876;2022-08-19T01:41:08;9.13;;;7.23;;
10481;SDS011;5288;42.334;23.876;2022-08-19T01:43:36;8.53;;;7.40;;
10481;SDS011;5288;42.334;23.876;2022-08-19T01:46:03;7.77;;;7.00;;
10481;SDS011;5288;42.334;23.876;2022-08-19T01:48:32;9.07;;;7.70;;
10481;SDS011;5288;42.334;23.876;2022-08-19T01:51:01;8.50;;;7.37;;
10481;SDS011;5288;42.334;23.876;2022-08-19T01:53:28;7.87;;;7.17;;
10481;SDS011;5288;42.334;23.876;2022-08-19T01:55:57;8.00;;;7.30;;
10481;SDS011;5288;42.334;23.876;2022-08-19T01:58:26;7.47;;;6.53;;
10481;SDS011;5288;42.334;23.876;2022-08-19T02:00:57;7.87;;;7.07;;
10481;SDS011;5288;42.334;23.876;2022-08-19T02:03:24;7.73;;;6.90;;
10481;SDS011;5288;42.334;23.876;2022-08-19T02:05:55;7.80;;;7.10;;
10481;SDS011;5288;42.334;23.876;2022-08-19T02:08:24;7.30;;;6.33;;
10481;SDS011;5288;42.334;23.876;2022-08-19T02:10:52;7.47;;;6.67;;
10481;SDS011;5288;42.334;23.876;2022-08-19T02:13:20;8.67;;;7.00;;
10481;SDS011;5288;42.334;23.876;2022-08-19T02:15:47;8.30;;;7.10;;
10481;SDS011;5288;42.334;23.876;2022-08-19T02:18:15;8.90;;;6.70;;
10481;SDS011;5288;42.334;23.876;2022-08-19T02:20:43;12.83;;;7.80;;
10481;SDS011;5288;42.334;23.876;2022-08-19T02:23:12;8.77;;;7.87;;
10481;SDS011;5288;42.334;23.876;2022-08-19T02:25:40;10.37;;;6.97;;
10481;SDS011;5288;42.334;23.876;2022-08-19T02:28:09;14.10;;;7.97;;
10481;SDS011;5288;42.334;23.876;2022-08-19T02:30:38;10.17;;;7.17;;
10481;SDS011;5288;42.334;23.876;2022-08-19T02:33:06;7.53;;;6.73;;
10481;SDS011;5288;42.334;23.876;2022-08-19T02:35:33;7.90;;;7.20;;
10481;SDS011;5288;42.334;23.876;2022-08-19T02:38:00;8.47;;;7.60;;
10481;SDS011;5288;42.334;23.876;2022-08-19T02:40:48;7.60;;;7.00;;
10481;SDS011;5288;42.334;23.876;2022-08-19T02:43:16;9.53;;;6.80;;
10481;SDS011;5288;42.334;23.876;2022-08-19T02:45:47;7.87;;;7.07;;
10481;SDS011;5288;42.334;23.876;2022-08-19T02:48:15;9.37;;;7.40;;
10481;SDS011;5288;42.334;23.876;2022-08-19T02:50:43;8.20;;;7.40;;
10481;SDS011;5288;42.334;23.876;2022-08-19T02:53:11;10.40;;;7.43;;
10481;SDS011;5288;42.334;23.876;2022-08-19T02:55:42;7.53;;;6.93;;
10481;SDS011;5288;42.334;23.876;2022-08-19T02:58:10;7.10;;;6.27;;
10481;SDS011;5288;42.334;23.876;2022-08-19T03:00:42;8.60;;;7.67;;
10481;SDS011;5288;42.334;23.876;2022-08-19T03:03:11;10.27;;;9.07;;
10481;SDS011;5288;42.334;23.876;2022-08-19T03:05:39;10.70;;;7.00;;
10481;SDS011;5288;42.334;23.876;2022-08-19T03:08:08;7.57;;;6.87;;
10481;SDS011;5288;42.334;23.876;2022-08-19T03:10:40;8.90;;;6.87;;
10481;SDS011;5288;42.334;23.876;2022-08-19T03:13:10;8.03;;;7.33;;
10481;SDS011;5288;42.334;23.876;2022-08-19T03:15:39;8.43;;;7.63;;
10481;SDS011;5288;42.334;23.876;2022-08-19T03:18:08;8.33;;;7.30;;
10481;SDS011;5288;42.334;23.876;2022-08-19T03:20:41;8.90;;;8.00;;
10481;SDS011;5288;42.334;23.876;2022-08-19T03:23:09;9.83;;;7.97;;
10481;SDS011;5288;42.334;23.876;2022-08-19T03:25:38;9.03;;;8.13;;
10481;SDS011;5288;42.334;23.876;2022-08-19T03:28:08;9.73;;;8.73;;
10481;SDS011;5288;42.334;23.876;2022-08-19T03:30:37;9.07;;;7.93;;
10481;SDS011;5288;42.334;23.876;2022-08-19T03:33:06;7.80;;;7.10;;
10481;SDS011;5288;42.334;23.876;2022-08-19T03:35:33;14.60;;;8.07;;
10481;SDS011;5288;42.334;23.876;2022-08-19T03:38:03;10.33;;;8.10;;
10481;SDS011;5288;42.334;23.876;2022-08-19T03:40:30;14.07;;;8.13;;
10481;SDS011;5288;42.334;23.876;2022-08-19T03:42:58;11.20;;;7.20;;
10481;SDS011;5288;42.334;23.876;2022-08-19T03:45:25;10.73;;;7.63;;
10481;SDS011;5288;42.334;23.876;2022-08-19T03:47:52;11.03;;;7.37;;
10481;SDS011;5288;42.334;23.876;2022-08-19T03:50:20;10.63;;;7.37;;
10481;SDS011;5288;42.334;23.876;2022-08-19T03:52:48;10.40;;;7.93;;
10481;SDS011;5288;42.334;23.876;2022-08-19T03:55:17;13.30;;;7.80;;
10481;SDS011;5288;42.334;23.876;2022-08-19T03:57:45;8.73;;;7.70;;
10481;SDS011;5288;42.334;23.876;2022-08-19T04:00:14;8.47;;;7.60;;
10481;SDS011;5288;42.334;23.876;2022-08-19T04:02:41;8.87;;;7.97;;
10481;SDS011;5288;42.334;23.876;2022-08-19T04:05:09;10.73;;;7.23;;
10481;SDS011;5288;42.334;23.876;2022-08-19T04:07:36;7.87;;;7.00;;
10481;SDS011;5288;42.334;23.876;2022-08-19T04:10:03;8.63;;;7.10;;
10481;SDS011;5288;42.334;23.876;2022-08-19T04:12:32;8.13;;;7.00;;
10481;SDS011;5288;42.334;23.876;2022-08-19T04:14:59;14.00;;;8.50;;
10481;SDS011;5288;42.334;23.876;2022-08-19T04:17:27;9.47;;;7.27;;
10481;SDS011;5288;42.334;23.876;2022-08-19T04:19:54;8.40;;;7.60;;
10481;SDS011;5288;42.334;23.876;2022-08-19T04:22:21;19.33;;;9.77;;
10481;SDS011;5288;42.334;23.876;2022-08-19T04:24:48;22.33;;;13.50;;
10481;SDS011;5288;42.334;23.876;2022-08-19T04:27:15;11.47;;;7.53;;
10481;SDS011;5288;42.334;23.876;2022-08-19T04:29:46;19.17;;;9.10;;
10481;SDS011;5288;42.334;23.876;2022-08-19T04:32:13;9.90;;;7.83;;
10481;SDS011;5288;42.334;23.876;2022-08-19T04:34:40;9.07;;;7.80;;
10481;SDS011;5288;42.334;23.876;2022-08-19T04:37:08;43.00;;;18.67;;
10481;SDS011;5288;42.334;23.876;2022-08-19T04:39:39;20.40;;;12.87;;
10481;SDS011;5288;42.334;23.876;2022-08-19T04:42:23;57.53;;;36.20;;
10481;SDS011;5288;42.334;23.876;2022-08-19T04:45:08;8.27;;;7.50;;
10481;SDS011;5288;42.334;23.876;2022-08-19T04:47:36;8.10;;;7.33;;
10481;SDS011;5288;42.334;23.876;2022-08-19T04:50:04;10.87;;;7.77;;
10481;SDS011;5288;42.334;23.876;2022-08-19T04:52:33;8.20;;;7.23;;
10481;SDS011;5288;42.334;23.876;2022-08-19T04:55:08;12.97;;;8.50;;
10481;SDS011;5288;42.334;23.876;2022-08-19T04:57:36;10.67;;;7.97;;
10481;SDS011;5288;42.334;23.876;2022-08-19T05:00:05;7.80;;;7.10;;
10481;SDS011;5288;42.334;23.876;2022-08-19T05:02:35;7.47;;;6.77;;
10481;SDS011;5288;42.334;23.876;2022-08-19T05:05:02;9.67;;;7.80;;
10481;SDS011;5288;42.334;23.876;2022-08-19T05:07:31;8.27;;;7.47;;
10481;SDS011;5288;42.334;23.876;2022-08-19T05:09:58;8.33;;;7.53;;
10481;SDS011;5288;42.334;23.876;2022-08-19T05:12:26;7.90;;;7.20;;
10481;SDS011;5288;42.334;23.876;2022-08-19T05:14:53;8.70;;;7.90;;
10481;SDS011;5288;42.334;23.876;2022-08-19T05:17:23;15.57;;;8.83;;
10481;SDS011;5288;42.334;23.876;2022-08-19T05:19:50;12.67;;;8.40;;
10481;SDS011;5288;42.334;23.876;2022-08-19T05:22:35;10.20;;;7.50;;
10481;SDS011;5288;42.334;23.876;2022-08-19T05:25:03;11.30;;;8.07;;
10481;SDS011;5288;42.334;23.876;2022-08-19T05:27:32;9.33;;;7.77;;
10481;SDS011;5288;42.334;23.876;2022-08-19T05:29:59;12.00;;;8.37;;
10481;SDS011;5288;42.334;23.876;2022-08-19T05:32:28;9.40;;;7.97;;
10481;SDS011;5288;42.334;23.876;2022-08-19T05:34:55;9.53;;;7.37;;
10481;SDS011;5288;42.334;23.876;2022-08-19T05:37:22;9.27;;;8.27;;
10481;SDS011;5288;42.334;23.876;2022-08-19T05:39:51;7.97;;;7.27;;
10481;SDS011;5288;42.334;23.876;2022-08-19T05:42:19;10.90;;;7.10;;
10481;SDS011;5288;42.334;23.876;2022-08-19T05:44:47;7.60;;;6.70;;
10481;SDS011;5288;42.334;23.876;2022-08-19T05:47:14;12.10;;;7.20;;
10481;SDS011;5288;42.334;23.876;2022-08-19T05:49:46;7.40;;;6.70;;
10481;SDS011;5288;42.334;23.876;2022-08-19T05:52:16;7.07;;;6.37;;
10481;SDS011;5288;42.334;23.876;2022-08-19T05:54:44;8.83;;;7.20;;
10481;SDS011;5288;42.334;23.876;2022-08-19T05:57:13;8.30;;;6.30;;
10481;SDS011;5288;42.334;23.876;2022-08-19T05:59:40;9.27;;;6.83;;
10481;SDS011;5288;42.334;23.876;2022-08-19T06:02:11;8.40;;;6.77;;
10481;SDS011;5288;42.334;23.876;2022-08-19T06:04:38;7.80;;;7.07;;
10481;SDS011;5288;42.334;23.876;2022-08-19T06:07:09;7.53;;;6.53;;
10481;SDS011;5288;42.334;23.876;2022-08-19T06:09:36;10.13;;;6.53;;
10481;SDS011;5288;42.334;23.876;2022-08-19T06:12:03;8.30;;;6.53;;
10481;SDS011;5288;42.334;23.876;2022-08-19T06:14:33;7.90;;;6.33;;
10481;SDS011;5288;42.334;23.876;2022-08-19T06:17:01;6.73;;;6.10;;
10481;SDS011;5288;42.334;23.876;2022-08-19T06:19:29;6.70;;;6.10;;
10481;SDS011;5288;42.334;23.876;2022-08-19T06:21:57;7.23;;;6.53;;
10481;SDS011;5288;42.334;23.876;2022-08-19T06:24:27;6.43;;;5.93;;
10481;SDS011;5288;42.334;23.876;2022-08-19T06:26:57;9.77;;;5.77;;
10481;SDS011;5288;42.334;23.876;2022-08-19T06:29:25;6.40;;;5.67;;
10481;SDS011;5288;42.334;23.876;2022-08-19T06:31:55;6.40;;;5.67;;
10481;SDS011;5288;42.334;23.876;2022-08-19T06:34:24;7.60;;;6.23;;
10481;SDS011;5288;42.334;23.876;2022-08-19T06:36:52;6.03;;;5.43;;
10481;SDS011;5288;42.334;23.876;2022-08-19T06:39:22;6.67;;;5.27;;
10481;SDS011;5288;42.334;23.876;2022-08-19T06:41:53;5.90;;;5.40;;
10481;SDS011;5288;42.334;23.876;2022-08-19T06:44:23;7.60;;;5.93;;
10481;SDS011;5288;42.334;23.876;2022-08-19T06:46:53;6.30;;;5.70;;
10481;SDS011;5288;42.334;23.876;2022-08-19T06:49:21;7.03;;;5.97;;
10481;SDS011;5288;42.334;23.876;2022-08-19T06:51:49;9.00;;;5.40;;
10481;SDS011;5288;42.334;23.876;2022-08-19T06:54:17;6.80;;;5.53;;
10481;SDS011;5288;42.334;23.876;2022-08-19T06:56:45;6.00;;;5.47;;
10481;SDS011;5288;42.334;23.876;2022-08-19T06:59:14;9.80;;;5.50;;
10481;SDS011;5288;42.334;23.876;2022-08-19T07:01:44;5.97;;;5.43;;
10481;SDS011;5288;42.334;23.876;2022-08-19T07:04:13;7.43;;;5.80;;
10481;SDS011;5288;42.334;23.876;2022-08-19T07:06:42;6.70;;;5.97;;
10481;SDS011;5288;42.334;23.876;2022-08-19T07:09:10;6.40;;;5.90;;
10481;SDS011;5288;42.334;23.876;2022-08-19T07:11:41;6.30;;;5.80;;
10481;SDS011;5288;42.334;23.876;2022-08-19T07:14:11;5.87;;;5.03;;
10481;SDS011;5288;42.334;23.876;2022-08-19T07:16:41;5.77;;;5.30;;
10481;SDS011;5288;42.334;23.876;2022-08-19T07:19:08;6.50;;;5.33;;
10481;SDS011;5288;42.334;23.876;2022-08-19T07:21:35;5.47;;;4.97;;
10481;SDS011;5288;42.334;23.876;2022-08-19T07:24:03;5.90;;;5.17;;
10481;SDS011;5288;42.334;23.876;2022-08-19T07:26:31;5.87;;;5.37;;
10481;SDS011;5288;42.334;23.876;2022-08-19T07:29:00;5.65;;;4.95;;
10481;SDS011;5288;42.334;23.876;2022-08-19T07:31:28;6.33;;;5.20;;
10481;SDS011;5288;42.334;23.876;2022-08-19T07:33:56;5.70;;;5.07;;
10481;SDS011;5288;42.334;23.876;2022-08-19T07:36:25;8.48;;;5.20;;
10481;SDS011;5288;42.334;23.876;2022-08-19T07:38:57;6.05;;;5.32;;
10481;SDS011;5288;42.334;23.876;2022-08-19T07:41:27;6.10;;;5.13;;
10481;SDS011;5288;42.334;23.876;2022-08-19T07:43:56;6.07;;;5.05;;
10481;SDS011;5288;42.334;23.876;2022-08-19T07:46:28;5.85;;;5.03;;
10481;SDS011;5288;42.334;23.876;2022-08-19T07:48:57;6.03;;;5.32;;
10481;SDS011;5288;42.334;23.876;2022-08-19T07:51:25;7.13;;;4.60;;
10481;SDS011;5288;42.334;23.876;2022-08-19T07:53:54;6.20;;;4.75;;
10481;SDS011;5288;42.334;23.876;2022-08-19T07:56:21;5.25;;;4.85;;
10481;SDS011;5288;42.334;23.876;2022-08-19T07:58:51;5.72;;;5.15;;
10481;SDS011;5288;42.334;23.876;2022-08-19T08:01:20;7.10;;;4.93;;
10481;SDS011;5288;42.334;23.876;2022-08-19T08:03:50;5.95;;;4.85;;
10481;SDS011;5288;42.334;23.876;2022-08-19T08:06:37;5.00;;;4.60;;
10481;SDS011;5288;42.334;23.876;2022-08-19T08:09:22;5.68;;;4.65;;
10481;SDS011;5288;42.334;23.876;2022-08-19T08:11:52;5.90;;;5.00;;
10481;SDS011;5288;42.334;23.876;2022-08-19T08:14:22;9.02;;;4.32;;
10481;SDS011;5288;42.334;23.876;2022-08-19T08:16:52;4.93;;;4.05;;
10481;SDS011;5288;42.334;23.876;2022-08-19T08:19:20;8.13;;;4.25;;
10481;SDS011;5288;42.334;23.876;2022-08-19T08:21:50;4.55;;;4.15;;
10481;SDS011;5288;42.334;23.876;2022-08-19T08:24:18;5.80;;;3.95;;
10481;SDS011;5288;42.334;23.876;2022-08-19T08:26:45;6.57;;;4.20;;
10481;SDS011;5288;42.334;23.876;2022-08-19T08:29:12;5.43;;;4.10;;
10481;SDS011;5288;42.334;23.876;2022-08-19T08:31:41;4.00;;;3.70;;
10481;SDS011;5288;42.334;23.876;2022-08-19T08:34:10;6.22;;;4.70;;
10481;SDS011;5288;42.334;23.876;2022-08-19T08:36:42;4.88;;;3.90;;
10481;SDS011;5288;42.334;23.876;2022-08-19T08:39:13;4.00;;;3.70;;
10481;SDS011;5288;42.334;23.876;2022-08-19T08:41:44;4.78;;;4.03;;
10481;SDS011;5288;42.334;23.876;2022-08-19T08:44:20;7.60;;;4.05;;
10481;SDS011;5288;42.334;23.876;2022-08-19T08:46:50;5.28;;;4.32;;
10481;SDS011;5288;42.334;23.876;2022-08-19T08:49:28;4.43;;;4.03;;
10481;SDS011;5288;42.334;23.876;2022-08-19T08:52:03;5.22;;;4.22;;
10481;SDS011;5288;42.334;23.876;2022-08-19T08:54:35;7.22;;;3.85;;
10481;SDS011;5288;42.334;23.876;2022-08-19T08:57:07;5.13;;;3.65;;
10481;SDS011;5288;42.334;23.876;2022-08-19T08:59:40;4.10;;;3.70;;
10481;SDS011;5288;42.334;23.876;2022-08-19T09:02:09;3.92;;;3.58;;
10481;SDS011;5288;42.334;23.876;2022-08-19T09:04:36;5.35;;;3.40;;
10481;SDS011;5288;42.334;23.876;2022-08-19T09:07:20;5.65;;;3.25;;
10481;SDS011;5288;42.334;23.876;2022-08-19T09:09:56;4.57;;;3.45;;
10481;SDS011;5288;42.334;23.876;2022-08-19T09:12:32;4.90;;;3.38;;
10481;SDS011;5288;42.334;23.876;2022-08-19T09:15:06;7.05;;;3.53;;
10481;SDS011;5288;42.334;23.876;2022-08-19T09:17:35;5.45;;;3.88;;
10481;SDS011;5288;42.334;23.876;2022-08-19T09:20:04;5.57;;;3.40;;
10481;SDS011;5288;42.334;23.876;2022-08-19T09:22:39;3.80;;;3.50;;
10481;SDS011;5288;42.334;23.876;2022-08-19T09:25:11;3.58;;;3.28;;
10481;SDS011;5288;42.334;23.876;2022-08-19T09:27:40;6.85;;;4.10;;
10481;SDS011;5288;42.334;23.876;2022-08-19T09:30:09;4.90;;;3.78;;
10481;SDS011;5288;42.334;23.876;2022-08-19T09:32:39;5.47;;;3.95;;
10481;SDS011;5288;42.334;23.876;2022-08-19T09:35:08;6.25;;;3.90;;
10481;SDS011;5288;42.334;23.876;2022-08-19T09:37:35;7.32;;;3.88;;
10481;SDS011;5288;42.334;23.876;2022-08-19T09:40:03;7.05;;;4.03;;
10481;SDS011;5288;42.334;23.876;2022-08-19T09:42:33;5.43;;;3.83;;
10481;SDS011;5288;42.334;23.876;2022-08-19T09:45:02;4.85;;;4.05;;
10481;SDS011;5288;42.334;23.876;2022-08-19T09:47:30;7.20;;;3.80;;
10481;SDS011;5288;42.334;23.876;2022-08-19T09:49:57;8.63;;;4.15;;
10481;SDS011;5288;42.334;23.876;2022-08-19T09:52:24;4.93;;;3.78;;
10481;SDS011;5288;42.334;23.876;2022-08-19T09:54:51;4.05;;;3.65;;
10481;SDS011;5288;42.334;23.876;2022-08-19T09:57:19;4.05;;;3.75;;
10481;SDS011;5288;42.334;23.876;2022-08-19T09:59:47;6.22;;;4.13;;
10481;SDS011;5288;42.334;23.876;2022-08-19T10:02:14;4.45;;;3.83;;
10481;SDS011;5288;42.334;23.876;2022-08-19T10:04:41;4.60;;;4.07;;
10481;SDS011;5288;42.334;23.876;2022-08-19T10:07:26;3.83;;;3.53;;
10481;SDS011;5288;42.334;23.876;2022-08-19T10:09:53;6.88;;;3.88;;
10481;SDS011;5288;42.334;23.876;2022-08-19T10:12:20;4.60;;;3.50;;
10481;SDS011;5288;42.334;23.876;2022-08-19T10:14:48;6.35;;;3.75;;
10481;SDS011;5288;42.334;23.876;2022-08-19T10:17:16;5.00;;;3.70;;
10481;SDS011;5288;42.334;23.876;2022-08-19T10:19:44;5.55;;;3.70;;
10481;SDS011;5288;42.334;23.876;2022-08-19T10:22:11;4.70;;;3.55;;
10481;SDS011;5288;42.334;23.876;2022-08-19T10:24:38;6.40;;;3.70;;
10481;SDS011;5288;42.334;23.876;2022-08-19T10:27:06;5.88;;;3.72;;
10481;SDS011;5288;42.334;23.876;2022-08-19T10:29:35;4.18;;;3.38;;
10481;SDS011;5288;42.334;23.876;2022-08-19T10:32:05;3.65;;;3.30;;
10481;SDS011;5288;42.334;23.876;2022-08-19T10:34:35;5.57;;;3.75;;
10481;SDS011;5288;42.334;23.876;2022-08-19T10:37:05;3.80;;;3.50;;
10481;SDS011;5288;42.334;23.876;2022-08-19T10:39:35;5.47;;;3.55;;
10481;SDS011;5288;42.334;23.876;2022-08-19T10:42:04;5.28;;;3.78;;
10481;SDS011;5288;42.334;23.876;2022-08-19T10:44:32;5.20;;;4.10;;
10481;SDS011;5288;42.334;23.876;2022-08-19T10:47:00;4.53;;;3.97;;
10481;SDS011;5288;42.334;23.876;2022-08-19T10:49:30;4.47;;;4.07;;
10481;SDS011;5288;42.334;23.876;2022-08-19T10:52:18;6.32;;;3.67;;
10481;SDS011;5288;42.334;23.876;2022-08-19T10:54:59;17.17;;;5.45;;
10481;SDS011;5288;42.334;23.876;2022-08-19T10:57:43;6.57;;;3.53;;
10481;SDS011;5288;42.334;23.876;2022-08-19T11:00:11;5.40;;;3.75;;
10481;SDS011;5288;42.334;23.876;2022-08-19T11:02:39;4.38;;;3.58;;
10481;SDS011;5288;42.334;23.876;2022-08-19T11:05:09;5.43;;;3.63;;
10481;SDS011;5288;42.334;23.876;2022-08-19T11:07:37;3.78;;;3.22;;
10481;SDS011;5288;42.334;23.876;2022-08-19T11:10:05;4.22;;;3.80;;
10481;SDS011;5288;42.334;23.876;2022-08-19T11:12:36;5.03;;;3.85;;
10481;SDS011;5288;42.334;23.876;2022-08-19T11:15:04;6.40;;;3.67;;
10481;SDS011;5288;42.334;23.876;2022-08-19T11:17:32;4.97;;;4.10;;
10481;SDS011;5288;42.334;23.876;2022-08-19T11:20:00;3.83;;;3.50;;
10481;SDS011;5288;42.334;23.876;2022-08-19T11:22:31;3.67;;;3.35;;
10481;SDS011;5288;42.334;23.876;2022-08-19T11:24:58;6.72;;;4.32;;
10481;SDS011;5288;42.334;23.876;2022-08-19T11:27:25;4.35;;;3.70;;
10481;SDS011;5288;42.334;23.876;2022-08-19T11:29:54;4.80;;;3.95;;
10481;SDS011;5288;42.334;23.876;2022-08-19T11:32:21;5.03;;;3.40;;
10481;SDS011;5288;42.334;23.876;2022-08-19T11:34:48;7.15;;;3.53;;
10481;SDS011;5288;42.334;23.876;2022-08-19T11:37:15;4.07;;;3.78;;
10481;SDS011;5288;42.334;23.876;2022-08-19T11:39:43;4.15;;;3.78;;
10481;SDS011;5288;42.334;23.876;2022-08-19T11:42:11;4.70;;;3.42;;
10481;SDS011;5288;42.334;23.876;2022-08-19T11:44:55;5.00;;;3.47;;
10481;SDS011;5288;42.334;23.876;2022-08-19T11:47:23;5.68;;;3.53;;
10481;SDS011;5288;42.334;23.876;2022-08-19T11:49:51;5.93;;;3.50;;
10481;SDS011;5288;42.334;23.876;2022-08-19T11:52:18;5.30;;;3.30;;
10481;SDS011;5288;42.334;23.876;2022-08-19T11:54:47;6.45;;;3.65;;
10481;SDS011;5288;42.334;23.876;2022-08-19T11:57:14;7.55;;;3.30;;
10481;SDS011;5288;42.334;23.876;2022-08-19T11:59:42;6.20;;;3.70;;
10481;SDS011;5288;42.334;23.876;2022-08-19T12:02:13;6.07;;;4.13;;
10481;SDS011;5288;42.334;23.876;2022-08-19T12:04:41;4.28;;;3.88;;
10481;SDS011;5288;42.334;23.876;2022-08-19T12:07:08;4.72;;;3.70;;
10481;SDS011;5288;42.334;23.876;2022-08-19T12:09:35;5.50;;;3.70;;
10481;SDS011;5288;42.334;23.876;2022-08-19T12:12:06;3.92;;;3.63;;
10481;SDS011;5288;42.334;23.876;2022-08-19T12:14:34;3.60;;;3.30;;
10481;SDS011;5288;42.334;23.876;2022-08-19T12:17:02;4.07;;;3.78;;
10481;SDS011;5288;42.334;23.876;2022-08-19T12:19:32;6.43;;;4.15;;
10481;SDS011;5288;42.334;23.876;2022-08-19T12:22:03;6.25;;;3.70;;
10481;SDS011;5288;42.334;23.876;2022-08-19T12:24:38;3.40;;;3.10;;
10481;SDS011;5288;42.334;23.876;2022-08-19T12:27:07;6.97;;;3.40;;
10481;SDS011;5288;42.334;23.876;2022-08-19T12:29:34;9.38;;;3.85;;
10481;SDS011;5288;42.334;23.876;2022-08-19T12:32:02;5.70;;;4.25;;
10481;SDS011;5288;42.334;23.876;2022-08-19T12:34:30;6.25;;;3.80;;
10481;SDS011;5288;42.334;23.876;2022-08-19T12:36:59;11.68;;;3.67;;
10481;SDS011;5288;42.334;23.876;2022-08-19T12:39:28;3.40;;;3.10;;
10481;SDS011;5288;42.334;23.876;2022-08-19T12:41:56;7.57;;;4.30;;
10481;SDS011;5288;42.334;23.876;2022-08-19T12:44:25;4.65;;;3.40;;
10481;SDS011;5288;42.334;23.876;2022-08-19T12:46:52;4.32;;;3.67;;
10481;SDS011;5288;42.334;23.876;2022-08-19T12:49:19;4.47;;;3.58;;
10481;SDS011;5288;42.334;23.876;2022-08-19T12:51:48;4.15;;;3.30;;
10481;SDS011;5288;42.334;23.876;2022-08-19T12:54:18;4.20;;;3.20;;
10481;SDS011;5288;42.334;23.876;2022-08-19T12:56:45;6.60;;;3.67;;
10481;SDS011;5288;42.334;23.876;2022-08-19T12:59:13;4.43;;;3.65;;
10481;SDS011;5288;42.334;23.876;2022-08-19T13:01:43;3.72;;;3.42;;
10481;SDS011;5288;42.334;23.876;2022-08-19T13:04:11;4.80;;;3.53;;
10481;SDS011;5288;42.334;23.876;2022-08-19T13:06:38;3.67;;;3.33;;
10481;SDS011;5288;42.334;23.876;2022-08-19T13:09:05;4.30;;;3.65;;
10481;SDS011;5288;42.334;23.876;2022-08-19T13:11:34;3.95;;;3.65;;
10481;SDS011;5288;42.334;23.876;2022-08-19T13:14:05;5.80;;;3.97;;
10481;SDS011;5288;42.334;23.876;2022-08-19T13:16:33;5.68;;;4.05;;
10481;SDS011;5288;42.334;23.876;2022-08-19T13:19:01;6.97;;;3.95;;
10481;SDS011;5288;42.334;23.876;2022-08-19T13:21:30;4.32;;;3.40;;
10481;SDS011;5288;42.334;23.876;2022-08-19T13:23:57;4.43;;;3.72;;
10481;SDS011;5288;42.334;23.876;2022-08-19T13:26:24;4.72;;;3.60;;
10481;SDS011;5288;42.334;23.876;2022-08-19T13:28:51;5.25;;;3.83;;
10481;SDS011;5288;42.334;23.876;2022-08-19T13:31:39;3.92;;;3.38;;
10481;SDS011;5288;42.334;23.876;2022-08-19T13:34:31;4.13;;;3.42;;
10481;SDS011;5288;42.334;23.876;2022-08-19T13:37:02;4.05;;;3.65;;
10481;SDS011;5288;42.334;23.876;2022-08-19T13:39:31;6.57;;;3.58;;
10481;SDS011;5288;42.334;23.876;2022-08-19T13:41:59;4.65;;;3.65;;
10481;SDS011;5288;42.334;23.876;2022-08-19T13:44:26;3.88;;;3.45;;
10481;SDS011;5288;42.334;23.876;2022-08-19T13:46:55;5.07;;;4.03;;
10481;SDS011;5288;42.334;23.876;2022-08-19T13:49:32;5.85;;;4.00;;
10481;SDS011;5288;42.334;23.876;2022-08-19T13:52:01;7.53;;;3.80;;
10481;SDS011;5288;42.334;23.876;2022-08-19T13:54:31;7.03;;;3.97;;
10481;SDS011;5288;42.334;23.876;2022-08-19T13:56:58;4.35;;;3.08;;
10481;SDS011;5288;42.334;23.876;2022-08-19T13:59:25;4.72;;;3.22;;
10481;SDS011;5288;42.334;23.876;2022-08-19T14:01:52;5.95;;;3.50;;
10481;SDS011;5288;42.334;23.876;2022-08-19T14:04:23;4.00;;;3.50;;
10481;SDS011;5288;42.334;23.876;2022-08-19T14:06:52;7.07;;;3.97;;
10481;SDS011;5288;42.334;23.876;2022-08-19T14:09:19;5.60;;;3.65;;
10481;SDS011;5288;42.334;23.876;2022-08-19T14:11:46;4.15;;;3.70;;
10481;SDS011;5288;42.334;23.876;2022-08-19T14:14:15;4.88;;;3.72;;
10481;SDS011;5288;42.334;23.876;2022-08-19T14:16:42;4.80;;;3.75;;
10481;SDS011;5288;42.334;23.876;2022-08-19T14:19:09;5.85;;;3.67;;
10481;SDS011;5288;42.334;23.876;2022-08-19T14:21:36;4.65;;;3.53;;
10481;SDS011;5288;42.334;23.876;2022-08-19T14:24:06;6.57;;;3.60;;
10481;SDS011;5288;42.334;23.876;2022-08-19T14:26:33;8.93;;;4.32;;
10481;SDS011;5288;42.334;23.876;2022-08-19T14:29:00;5.35;;;3.30;;
10481;SDS011;5288;42.334;23.876;2022-08-19T14:31:27;5.88;;;3.58;;
10481;SDS011;5288;42.334;23.876;2022-08-19T14:33:54;4.53;;;3.60;;
10481;SDS011;5288;42.334;23.876;2022-08-19T14:36:21;8.45;;;3.70;;
10481;SDS011;5288;42.334;23.876;2022-08-19T14:38:49;6.88;;;3.55;;
10481;SDS011;5288;42.334;23.876;2022-08-19T14:58:09;5.10;;;3.65;;
10481;SDS011;5288;42.334;23.876;2022-08-19T15:00:37;5.50;;;3.30;;
10481;SDS011;5288;42.334;23.876;2022-08-19T15:03:04;8.55;;;4.35;;
10481;SDS011;5288;42.334;23.876;2022-08-19T15:05:31;5.70;;;3.95;;
10481;SDS011;5288;42.334;23.876;2022-08-19T15:08:02;3.92;;;3.53;;
10481;SDS011;5288;42.334;23.876;2022-08-19T15:10:29;4.63;;;3.80;;
10481;SDS011;5288;42.334;23.876;2022-08-19T15:12:56;4.28;;;3.67;;
10481;SDS011;5288;42.334;23.876;2022-08-19T15:15:25;5.38;;;4.03;;